createdAt,value
2018-03-29T00:00:34.157Z,7.59
2018-03-29T00:03:03.611Z,7.60
2018-03-29T00:05:32.131Z,7.63
2018-03-29T00:08:00.634Z,7.63
2018-03-29T00:10:29.169Z,7.60
2018-03-29T00:12:57.681Z,7.68
2018-03-29T00:15:27.183Z,7.63
2018-03-29T00:17:57.771Z,7.59
2018-03-29T00:20:27.216Z,7.51
2018-03-29T00:22:55.754Z,7.47
2018-03-29T00:25:24.306Z,7.50
2018-03-29T00:28:03.817Z,7.48
2018-03-29T00:30:32.339Z,7.47
2018-03-29T00:33:00.877Z,7.50
2018-03-29T00:35:30.497Z,7.50
2018-03-29T00:38:13.561Z,7.40
2018-03-29T00:40:42.077Z,7.41
2018-03-29T00:43:11.510Z,7.40
2018-03-29T00:45:40.086Z,7.35
2018-03-29T00:48:30.940Z,7.34
2018-03-29T00:51:10.259Z,7.28
2018-03-29T00:53:44.732Z,7.19
2018-03-29T00:56:14.137Z,7.22
2018-03-29T00:58:42.791Z,7.18
2018-03-29T01:01:11.297Z,7.12
2018-03-29T01:03:39.807Z,7.10
2018-03-29T01:06:08.330Z,7.01
2018-03-29T01:08:36.854Z,6.96
2018-03-29T01:11:05.509Z,6.98
2018-03-29T01:13:33.990Z,6.92
2018-03-29T01:16:02.507Z,6.82
2018-03-29T01:18:31.028Z,6.83
2018-03-29T01:21:08.327Z,6.80
2018-03-29T01:23:37.765Z,6.74
2018-03-29T01:26:06.273Z,6.69
2018-03-29T01:28:34.796Z,6.72
2018-03-29T01:31:10.270Z,6.68
2018-03-29T01:33:40.998Z,6.59
2018-03-29T01:36:14.889Z,6.58
2018-03-29T01:38:43.413Z,6.56
2018-03-29T01:41:25.310Z,6.53
2018-03-29T01:44:05.566Z,6.54
2018-03-29T01:46:34.078Z,6.58
2018-03-29T01:49:11.078Z,6.47
2018-03-29T01:51:40.576Z,6.37
2018-03-29T01:54:30.343Z,6.26
2018-03-29T01:57:07.577Z,6.10
2018-03-29T01:59:36.122Z,6.04
2018-03-29T02:02:29.878Z,5.99
2018-03-29T02:05:12.670Z,5.88
2018-03-29T02:07:41.209Z,5.81
2018-03-29T02:10:09.710Z,5.74
2018-03-29T02:12:38.266Z,5.68
2018-03-29T02:15:06.818Z,5.67
2018-03-29T02:17:35.341Z,5.59
2018-03-29T02:20:03.841Z,5.63
2018-03-29T02:22:36.454Z,5.63
2018-03-29T02:25:04.983Z,5.55
2018-03-29T02:27:35.414Z,5.51
2018-03-29T02:30:03.923Z,5.49
2018-03-29T02:32:51.243Z,5.41
2018-03-29T02:35:37.233Z,5.38
2018-03-29T02:38:05.872Z,5.33
2018-03-29T02:40:36.637Z,5.35
2018-03-29T02:43:05.167Z,5.33
2018-03-29T02:45:46.404Z,5.37
2018-03-29T02:48:16.948Z,5.31
2018-03-29T02:50:51.340Z,5.27
2018-03-29T02:53:20.758Z,5.30
2018-03-29T02:55:51.237Z,5.30
2018-03-29T02:58:37.293Z,5.23
2018-03-29T03:01:05.802Z,5.26
2018-03-29T03:03:50.777Z,5.22
2018-03-29T03:06:19.306Z,5.15
2018-03-29T03:08:53.486Z,5.13
2018-03-29T03:11:50.858Z,5.17
2018-03-29T03:14:19.384Z,5.22
2018-03-29T03:16:49.850Z,5.27
2018-03-29T03:19:25.923Z,5.21
2018-03-29T03:21:54.442Z,5.26
2018-03-29T03:24:22.995Z,5.25
2018-03-29T03:26:51.485Z,5.22
2018-03-29T03:29:20.011Z,5.25
2018-03-29T03:31:48.534Z,5.25
2018-03-29T03:34:17.046Z,5.28
2018-03-29T03:36:50.959Z,5.36
2018-03-29T03:39:37.354Z,5.42
2018-03-29T03:42:05.886Z,5.43
2018-03-29T03:44:51.921Z,5.43
2018-03-29T03:47:30.176Z,5.48
2018-03-29T03:49:58.757Z,5.39
2018-03-29T03:52:27.269Z,5.38
2018-03-29T03:54:55.786Z,5.27
2018-03-29T03:57:24.298Z,5.24
2018-03-29T03:59:52.991Z,5.21
2018-03-29T04:02:21.631Z,5.13
2018-03-29T04:04:50.982Z,5.23
2018-03-29T04:07:23.253Z,5.15
2018-03-29T04:09:51.785Z,5.12
2018-03-29T04:12:20.397Z,5.10
2018-03-29T04:14:48.915Z,5.02
2018-03-29T04:17:48.592Z,5.08
2018-03-29T04:20:20.881Z,5.07
2018-03-29T04:22:49.535Z,4.89
2018-03-29T04:25:36.971Z,4.87
2018-03-29T04:28:05.486Z,4.84
2018-03-29T04:30:37.743Z,4.71
2018-03-29T04:33:06.393Z,4.69
2018-03-29T04:35:58.072Z,4.51
2018-03-29T04:38:47.623Z,4.30
2018-03-29T04:41:21.478Z,4.22
2018-03-29T04:43:50.007Z,4.10
2018-03-29T04:46:26.958Z,3.99
2018-03-29T04:48:55.502Z,4.02
2018-03-29T04:51:24.010Z,3.92
2018-03-29T04:53:52.888Z,3.90
2018-03-29T04:56:48.333Z,3.93
2018-03-29T04:59:17.016Z,4.00
2018-03-29T05:01:45.571Z,4.07
2018-03-29T05:04:48.798Z,4.13
2018-03-29T05:07:25.425Z,4.07
2018-03-29T05:09:54.144Z,4.05
2018-03-29T05:12:25.659Z,3.95
2018-03-29T05:14:54.177Z,3.99
2018-03-29T05:17:45.079Z,3.95
2018-03-29T05:20:14.118Z,4.14
2018-03-29T05:22:43.554Z,4.03
2018-03-29T05:25:37.326Z,4.11
2018-03-29T05:28:23.838Z,4.12
2018-03-29T05:30:52.535Z,4.18
2018-03-29T05:33:21.025Z,4.13
2018-03-29T05:35:49.538Z,4.20
2018-03-29T05:38:18.153Z,4.20
2018-03-29T05:40:46.744Z,4.18
2018-03-29T05:43:15.215Z,4.22
2018-03-29T05:45:45.634Z,4.24
2018-03-29T05:48:15.056Z,4.30
2018-03-29T05:50:45.468Z,4.30
2018-03-29T05:53:31.086Z,4.35
2018-03-29T05:55:59.577Z,4.38
2018-03-29T05:58:38.179Z,4.48
2018-03-29T06:01:10.830Z,4.51
2018-03-29T06:04:02.749Z,4.66
2018-03-29T06:06:56.277Z,4.66
2018-03-29T06:09:24.777Z,4.64
2018-03-29T06:12:10.012Z,4.70
2018-03-29T06:14:47.118Z,4.78
2018-03-29T06:17:21.430Z,5.01
2018-03-29T06:19:50.019Z,5.04
2018-03-29T06:22:18.538Z,5.07
2018-03-29T06:24:48.492Z,5.27
2018-03-29T06:27:17.146Z,5.35
2018-03-29T06:29:45.890Z,5.55
2018-03-29T06:32:16.504Z,5.77
2018-03-29T06:34:45.010Z,5.92
2018-03-29T06:37:14.118Z,6.01
2018-03-29T06:39:42.661Z,6.02
2018-03-29T06:42:18.984Z,6.06
2018-03-29T06:44:47.526Z,6.13
2018-03-29T06:47:22.231Z,6.15
2018-03-29T06:49:50.759Z,6.40
2018-03-29T06:52:36.121Z,6.60
2018-03-29T06:55:05.164Z,6.69
2018-03-29T06:57:33.680Z,6.88
2018-03-29T07:00:03.331Z,6.67
2018-03-29T07:02:41.128Z,6.66
2018-03-29T07:05:22.950Z,6.57
2018-03-29T07:07:52.380Z,6.36
2018-03-29T07:10:42.790Z,6.28
2018-03-29T07:13:12.421Z,6.38
2018-03-29T07:15:41.839Z,6.31
2018-03-29T07:18:21.213Z,6.18
2018-03-29T07:20:49.721Z,6.09
2018-03-29T07:23:32.666Z,6.02
2018-03-29T07:26:03.463Z,6.08
2018-03-29T07:28:41.635Z,6.25
2018-03-29T07:31:12.381Z,6.28
2018-03-29T07:33:40.890Z,6.47
2018-03-29T07:36:20.589Z,6.38
2018-03-29T07:38:49.329Z,6.33
2018-03-29T07:41:17.854Z,6.19
2018-03-29T07:43:47.318Z,6.26
2018-03-29T07:46:15.824Z,6.33
2018-03-29T07:48:46.166Z,6.42
2018-03-29T07:51:19.032Z,6.68
2018-03-29T07:53:47.546Z,6.88
2018-03-29T07:56:16.066Z,6.91
2018-03-29T07:58:44.603Z,7.12
2018-03-29T08:01:40.874Z,6.90
2018-03-29T08:04:13.105Z,6.98
2018-03-29T08:06:41.626Z,6.91
2018-03-29T08:09:13.816Z,6.89
2018-03-29T08:11:42.826Z,7.01
2018-03-29T08:14:11.347Z,6.87
2018-03-29T08:16:41.767Z,6.59
2018-03-29T08:19:10.719Z,6.58
2018-03-29T08:21:41.227Z,6.70
2018-03-29T08:24:26.045Z,6.96
2018-03-29T08:26:55.662Z,7.31
2018-03-29T08:29:24.177Z,7.69
2018-03-29T08:31:54.682Z,7.80
2018-03-29T08:34:26.621Z,7.80
2018-03-29T08:37:16.795Z,7.63
2018-03-29T08:39:46.010Z,7.90
2018-03-29T08:42:30.391Z,7.68
2018-03-29T08:45:03.417Z,7.72
2018-03-29T08:47:31.934Z,7.75
2018-03-29T08:50:08.093Z,8.17
2018-03-29T08:52:36.642Z,8.65
2018-03-29T08:55:19.234Z,8.53
2018-03-29T08:57:47.748Z,8.02
2018-03-29T09:00:29.737Z,8.29
2018-03-29T09:02:59.285Z,8.21
2018-03-29T09:05:31.122Z,7.99
2018-03-29T09:07:59.617Z,8.10
2018-03-29T09:10:31.713Z,8.68
2018-03-29T09:13:05.855Z,8.92
2018-03-29T09:15:34.382Z,9.38
2018-03-29T09:18:15.686Z,9.33
2018-03-29T09:20:45.042Z,10.23
2018-03-29T09:23:22.318Z,9.64
2018-03-29T09:25:57.926Z,9.46
2018-03-29T09:28:29.697Z,8.64
2018-03-29T09:31:18.228Z,8.27
2018-03-29T09:33:47.150Z,8.33
2018-03-29T09:36:15.729Z,8.76
2018-03-29T09:38:45.076Z,9.14
2018-03-29T09:41:20.978Z,9.45
2018-03-29T09:43:52.611Z,9.81
2018-03-29T09:46:21.162Z,9.84
2018-03-29T09:48:59.227Z,10.90
2018-03-29T09:51:27.730Z,11.66
2018-03-29T09:54:10.919Z,11.81
2018-03-29T09:56:39.450Z,11.95
2018-03-29T09:59:11.584Z,11.73
2018-03-29T10:01:44.458Z,12.57
2018-03-29T10:04:30.132Z,14.08
2018-03-29T10:07:34.710Z,15.22
2018-03-29T10:10:10.207Z,14.28
2018-03-29T10:12:39.002Z,15.26
2018-03-29T10:15:29.409Z,15.66
2018-03-29T10:17:57.938Z,14.11
2018-03-29T10:20:30.654Z,13.73
2018-03-29T10:23:01.115Z,13.95
2018-03-29T10:25:30.755Z,14.01
2018-03-29T10:28:04.840Z,13.59
2018-03-29T10:30:33.370Z,12.50
2018-03-29T10:33:02.534Z,13.29
2018-03-29T10:35:31.058Z,13.94
2018-03-29T10:37:59.614Z,13.07
2018-03-29T10:40:30.056Z,12.56
2018-03-29T10:42:58.563Z,12.49
2018-03-29T10:45:27.092Z,13.55
2018-03-29T10:47:59.629Z,16.00
2018-03-29T10:50:42.566Z,17.15
2018-03-29T10:53:13.207Z,17.94
2018-03-29T10:55:53.180Z,18.98
2018-03-29T10:58:27.903Z,18.42
2018-03-29T11:00:57.362Z,16.44
2018-03-29T11:03:26.506Z,16.89
2018-03-29T11:05:55.023Z,18.18
2018-03-29T11:08:33.456Z,18.26
2018-03-29T11:11:01.996Z,18.44
2018-03-29T11:13:33.757Z,17.77
2018-03-29T11:16:02.297Z,18.59
2018-03-29T11:18:53.148Z,18.67
2018-03-29T11:21:40.838Z,16.83
2018-03-29T11:24:09.589Z,15.28
2018-03-29T11:26:52.126Z,15.42
2018-03-29T11:29:24.391Z,17.82
2018-03-29T11:31:53.833Z,17.55
2018-03-29T11:34:32.739Z,17.04
2018-03-29T11:37:01.750Z,16.92
2018-03-29T11:39:30.267Z,15.97
2018-03-29T11:41:58.828Z,15.77
2018-03-29T11:44:29.231Z,15.54
2018-03-29T11:46:58.137Z,14.79
2018-03-29T11:49:38.236Z,14.80
2018-03-29T11:52:06.767Z,14.33
2018-03-29T11:54:37.208Z,14.28
2018-03-29T11:57:05.733Z,14.56
2018-03-29T11:59:52.461Z,15.08
2018-03-29T12:02:41.826Z,15.22
2018-03-29T12:05:10.912Z,15.21
2018-03-29T12:07:47.931Z,14.94
2018-03-29T12:10:37.380Z,15.57
2018-03-29T12:13:05.915Z,14.72
2018-03-29T12:15:34.471Z,14.43
2018-03-29T12:18:03.631Z,14.37
2018-03-29T12:20:32.154Z,13.63
2018-03-29T12:23:01.049Z,13.44
2018-03-29T12:25:53.348Z,13.37
2018-03-29T12:28:49.713Z,13.46
2018-03-29T12:31:18.252Z,14.10
2018-03-29T12:34:13.363Z,15.10
2018-03-29T12:36:42.951Z,15.85
2018-03-29T12:39:12.470Z,15.49
2018-03-29T12:42:01.950Z,16.49
2018-03-29T12:44:30.642Z,15.62
2018-03-29T12:47:02.477Z,14.94
2018-03-29T12:49:31.006Z,14.78
2018-03-29T12:51:59.582Z,14.41
2018-03-29T12:54:39.894Z,14.69
2018-03-29T12:57:25.199Z,14.03
2018-03-29T12:59:57.569Z,14.16
2018-03-29T13:02:26.092Z,13.80
2018-03-29T13:04:57.753Z,13.27
2018-03-29T13:07:26.318Z,13.46
2018-03-29T13:10:14.335Z,13.83
2018-03-29T13:12:44.782Z,13.60
2018-03-29T13:15:14.016Z,13.51
2018-03-29T13:18:00.830Z,12.95
2018-03-29T13:20:29.438Z,13.47
2018-03-29T13:22:57.949Z,13.60
2018-03-29T13:25:26.495Z,13.61
2018-03-29T13:27:57.885Z,13.80
2018-03-29T13:30:26.419Z,13.96
2018-03-29T13:32:56.443Z,13.96
2018-03-29T13:35:24.966Z,13.00
2018-03-29T13:37:57.303Z,12.48
2018-03-29T13:40:25.834Z,12.45
2018-03-29T13:42:57.861Z,12.55
2018-03-29T13:45:27.253Z,12.51
2018-03-29T13:48:05.183Z,12.45
2018-03-29T13:50:44.004Z,12.16
2018-03-29T13:53:16.409Z,12.04
2018-03-29T13:56:10.795Z,11.75
2018-03-29T13:59:09.206Z,11.96
2018-03-29T14:01:38.942Z,12.15
2018-03-29T14:04:14.018Z,11.85
2018-03-29T14:06:42.520Z,12.08
2018-03-29T14:09:13.005Z,12.00
2018-03-29T14:11:41.855Z,11.88
2018-03-29T14:14:18.206Z,12.24
2018-03-29T14:16:58.069Z,12.21
2018-03-29T14:19:26.594Z,11.55
2018-03-29T14:22:13.656Z,11.65
2018-03-29T14:24:59.226Z,11.24
2018-03-29T14:27:28.675Z,11.14
2018-03-29T14:29:57.288Z,11.11
2018-03-29T14:32:35.834Z,10.88
2018-03-29T14:35:25.716Z,10.54
2018-03-29T14:37:54.668Z,10.49
2018-03-29T14:40:35.986Z,10.36
2018-03-29T14:43:18.925Z,9.92
2018-03-29T14:45:47.456Z,9.74
2018-03-29T14:48:23.429Z,9.68
2018-03-29T14:50:51.951Z,9.69
2018-03-29T14:53:35.038Z,9.86
2018-03-29T14:56:04.483Z,9.72
2018-03-29T14:58:34.922Z,9.72
2018-03-29T15:01:08.518Z,9.63
2018-03-29T15:03:36.985Z,9.60
2018-03-29T15:06:29.556Z,9.96
2018-03-29T15:08:58.085Z,9.55
2018-03-29T15:11:35.901Z,9.26
2018-03-29T15:14:22.588Z,9.20
2018-03-29T15:16:51.494Z,8.91
2018-03-29T15:19:20.014Z,8.72
2018-03-29T15:21:48.780Z,8.57
2018-03-29T15:24:30.319Z,8.51
2018-03-29T15:27:02.580Z,8.43
2018-03-29T15:29:35.537Z,8.30
2018-03-29T15:32:15.129Z,8.30
2018-03-29T15:34:43.699Z,8.40
2018-03-29T15:37:16.073Z,8.63
2018-03-29T15:39:44.526Z,8.90
2018-03-29T15:42:13.264Z,9.09
2018-03-29T15:44:41.824Z,9.35
2018-03-29T15:47:10.306Z,9.19
2018-03-29T15:49:38.820Z,9.08
2018-03-29T15:52:07.335Z,9.06
2018-03-29T15:54:35.851Z,9.06
2018-03-29T15:57:16.474Z,9.01
2018-03-29T15:59:45.310Z,9.01
2018-03-29T16:02:24.755Z,9.09
2018-03-29T16:04:53.636Z,9.15
2018-03-29T16:07:22.165Z,9.31
2018-03-29T16:09:51.211Z,9.20
2018-03-29T16:12:19.727Z,9.25
2018-03-29T16:14:48.244Z,9.12
2018-03-29T16:17:16.750Z,8.68
2018-03-29T16:19:46.178Z,8.33
2018-03-29T16:22:16.143Z,8.33
2018-03-29T16:24:44.660Z,8.32
2018-03-29T16:27:17.081Z,8.28
2018-03-29T16:29:45.597Z,8.37
2018-03-29T16:32:14.128Z,8.47
2018-03-29T16:34:43.134Z,8.29
2018-03-29T16:37:25.822Z,8.23
2018-03-29T16:39:54.344Z,8.27
2018-03-29T16:42:32.669Z,8.28
2018-03-29T16:45:02.112Z,8.23
2018-03-29T16:47:38.337Z,8.31
2018-03-29T16:50:08.029Z,8.39
2018-03-29T16:52:48.098Z,8.23
2018-03-29T16:55:17.476Z,8.21
2018-03-29T16:57:48.269Z,8.05
2018-03-29T17:00:18.674Z,7.97
2018-03-29T17:02:56.155Z,7.94
2018-03-29T17:05:28.022Z,7.88
2018-03-29T17:07:56.539Z,7.85
2018-03-29T17:10:37.469Z,7.67
2018-03-29T17:13:07.023Z,7.47
2018-03-29T17:15:43.994Z,7.26
2018-03-29T17:18:12.513Z,7.23
2018-03-29T17:20:49.361Z,7.15
2018-03-29T17:23:38.542Z,7.13
2018-03-29T17:26:07.274Z,7.10
2018-03-29T17:28:40.543Z,7.00
2018-03-29T17:31:09.253Z,6.84
2018-03-29T17:33:42.444Z,6.77
2018-03-29T17:36:22.533Z,6.62
2018-03-29T17:41:38.010Z,6.37
2018-03-29T17:44:06.510Z,6.28
2018-03-29T17:46:35.053Z,6.18
2018-03-29T17:49:04.453Z,6.11
2018-03-29T17:51:50.064Z,6.02
2018-03-29T17:54:43.395Z,6.08
2018-03-29T17:57:11.919Z,6.10
2018-03-29T17:59:55.667Z,6.12
2018-03-29T18:02:46.500Z,6.16
2018-03-29T18:05:15.001Z,6.14
2018-03-29T18:07:43.794Z,6.15
2018-03-29T18:10:12.328Z,6.13
2018-03-29T18:12:48.081Z,6.05
2018-03-29T18:15:21.997Z,6.06
2018-03-29T18:17:57.673Z,6.03
2018-03-29T18:20:31.638Z,6.02
2018-03-29T18:23:00.153Z,6.01
2018-03-29T18:25:28.677Z,5.96
2018-03-29T18:28:04.665Z,5.98
2018-03-29T18:30:33.179Z,6.01
2018-03-29T18:33:12.571Z,5.95
2018-03-29T18:35:58.025Z,5.99
2018-03-29T18:38:26.546Z,6.04
2018-03-29T18:40:55.142Z,6.04
2018-03-29T18:43:23.686Z,6.02
2018-03-29T18:45:53.081Z,5.98
2018-03-29T18:48:21.581Z,5.94
2018-03-29T18:51:00.878Z,5.94
2018-03-29T18:53:29.382Z,5.97
2018-03-29T18:55:57.894Z,5.88
2018-03-29T18:58:26.542Z,5.86
2018-03-29T19:01:03.099Z,5.85
2018-03-29T19:03:31.725Z,5.91
2018-03-29T19:06:17.292Z,5.88
2018-03-29T19:08:45.805Z,5.83
2018-03-29T19:11:19.857Z,5.79
2018-03-29T19:14:00.867Z,5.77
2018-03-29T19:16:44.672Z,5.75
2018-03-29T19:19:13.189Z,5.75
2018-03-29T19:21:57.783Z,5.81
2018-03-29T19:24:41.526Z,5.76
2018-03-29T19:27:10.047Z,5.70
2018-03-29T19:29:46.497Z,5.69
2018-03-29T19:32:15.047Z,5.66
2018-03-29T19:35:00.658Z,5.64
2018-03-29T19:37:32.559Z,5.61
2018-03-29T19:40:01.864Z,5.57
2018-03-29T19:42:34.291Z,5.44
2018-03-29T19:45:02.777Z,5.29
2018-03-29T19:47:38.906Z,5.18
2018-03-29T19:50:07.428Z,5.14
2018-03-29T19:52:45.330Z,5.00
2018-03-29T19:55:13.854Z,4.97
2018-03-29T19:57:55.605Z,4.99
2018-03-29T20:00:25.234Z,4.92
2018-03-29T20:03:01.358Z,4.91
2018-03-29T20:05:29.977Z,4.87
2018-03-29T20:08:01.846Z,4.85
2018-03-29T20:10:40.160Z,4.81
2018-03-29T20:13:08.646Z,4.81
2018-03-29T20:15:49.447Z,4.70
2018-03-29T20:18:18.576Z,4.58
2018-03-29T20:20:57.597Z,4.45
2018-03-29T20:23:30.501Z,4.28
2018-03-29T20:26:00.942Z,4.20
2018-03-29T20:28:44.941Z,4.04
2018-03-29T20:31:13.579Z,3.93
2018-03-29T20:34:04.398Z,3.88
2018-03-29T20:36:40.829Z,3.86
2018-03-29T20:39:09.363Z,3.81
2018-03-29T20:41:41.316Z,3.75
2018-03-29T20:44:10.044Z,3.74
2018-03-29T20:46:38.577Z,3.76
2018-03-29T20:49:07.095Z,3.78
2018-03-29T20:51:35.649Z,3.73
2018-03-29T20:54:04.181Z,3.72
2018-03-29T20:56:36.576Z,3.61
2018-03-29T20:59:05.136Z,3.46
2018-03-29T21:01:35.563Z,3.42
2018-03-29T21:04:04.149Z,3.40
2018-03-29T21:06:33.391Z,3.36
2018-03-29T21:09:01.936Z,3.36
2018-03-29T21:11:48.050Z,3.34
2018-03-29T21:14:16.545Z,3.31
2018-03-29T21:16:50.749Z,3.41
2018-03-29T21:19:19.262Z,3.36
2018-03-29T21:22:02.154Z,3.29
2018-03-29T21:24:38.267Z,3.26
2018-03-29T21:27:06.782Z,3.27
2018-03-29T21:29:48.072Z,3.24
2018-03-29T21:32:16.559Z,3.18
2018-03-29T21:34:52.893Z,3.13
2018-03-29T21:37:31.165Z,3.09
2018-03-29T21:39:59.864Z,3.02
2018-03-29T21:42:35.365Z,2.93
2018-03-29T21:45:03.959Z,2.91
2018-03-29T21:47:32.536Z,2.92
2018-03-29T21:50:01.905Z,2.88
2018-03-29T21:52:34.956Z,2.90
2018-03-29T21:55:07.614Z,2.85
2018-03-29T21:57:38.474Z,2.91
2018-03-29T22:00:07.837Z,2.93
2018-03-29T22:02:44.903Z,2.86
2018-03-29T22:05:13.445Z,2.76
2018-03-29T22:07:55.322Z,2.72
2018-03-29T22:10:40.989Z,2.62
2018-03-29T22:13:09.576Z,2.52
2018-03-29T22:15:51.632Z,2.47
2018-03-29T22:18:45.266Z,2.48
2018-03-29T22:21:13.774Z,2.42
2018-03-29T22:23:48.394Z,2.29
2018-03-29T22:26:16.906Z,2.30
2018-03-29T22:28:45.480Z,2.28
2018-03-29T22:31:14.183Z,2.12
2018-03-29T22:33:46.027Z,1.95
2018-03-29T22:36:14.537Z,1.85
2018-03-29T22:39:01.430Z,1.74
2018-03-29T22:41:34.511Z,1.64
2018-03-29T22:44:03.042Z,1.50
2018-03-29T22:47:00.718Z,1.40
2018-03-29T22:49:33.022Z,1.46
2018-03-29T22:52:01.551Z,1.28
2018-03-29T22:54:42.760Z,1.17
2018-03-29T22:57:13.162Z,1.02
2018-03-29T23:00:01.134Z,0.88
2018-03-29T23:02:35.004Z,0.83
2018-03-29T23:05:03.685Z,0.84
2018-03-29T23:07:32.219Z,0.96
2018-03-29T23:10:01.662Z,0.93
2018-03-29T23:12:50.948Z,0.89
2018-03-29T23:15:19.510Z,0.77
2018-03-29T23:18:01.281Z,0.69
2018-03-29T23:21:00.614Z,0.60
2018-03-29T23:23:38.230Z,0.56
2018-03-29T23:26:06.702Z,0.51
2018-03-29T23:28:40.553Z,0.43
2018-03-29T23:31:09.077Z,0.40
2018-03-29T23:33:43.452Z,0.23
2018-03-29T23:36:11.978Z,0.13
2018-03-29T23:38:47.929Z,0.08
2018-03-29T23:41:17.410Z,0.07
2018-03-29T23:43:45.994Z,0.04
2018-03-29T23:46:14.762Z,-0.02
2018-03-29T23:48:43.296Z,-0.10
2018-03-29T23:51:11.846Z,-0.16
2018-03-29T23:53:42.301Z,-0.18
2018-03-29T23:56:10.892Z,-0.21
2018-03-29T23:58:39.706Z,-0.25
